This is the latest recevied weather packets stored in our database for station/object DL4ABR-6. If no packets are shown the sender has not sent any weather packets the latest 10 day(s).
| Time | Temp. | Humidity | Pressure | Rain* | Wind** | Luminosity | Snow |
|---|---|---|---|---|---|---|---|
| 1777711970 | 23.33° C | 40% | 1016.5 hPa | 0 mm | - | - | - |
| 1777711220 | 23.33° C | 39% | 1016.3 hPa | 0 mm | - | - | - |
| 1777710480 | 22.22° C | 41% | 1016.5 hPa | 0 mm | - | - | - |
| 1777709635 | 22.22° C | 39% | 1016.9 hPa | 0 mm | - | - | - |
| 1777708855 | 21.67° C | 42% | 1016.7 hPa | 0 mm | - | - | - |
| 1777708130 | 21.67° C | 43% | 1016.8 hPa | 0 mm | - | - | - |
| 1777707275 | 21.67° C | 44% | 1016.9 hPa | 0 mm | - | - | - |
| 1777706465 | 20.56° C | 48% | 1016.7 hPa | 0 mm | - | - | - |
| 1777705671 | 20° C | 49% | 1017.2 hPa | 0 mm | - | - | - |
| 1777704780 | 18.89° C | 52% | 1017.3 hPa | 0 mm | - | - | - |
| 1777704044 | 17.22° C | 57% | 1017.2 hPa | 0 mm | - | - | - |
| 1777703315 | 15.56° C | 63% | 1017.3 hPa | 0 mm | - | - | - |
| 1777702565 | 14.44° C | 65% | 1017.2 hPa | 0 mm | - | - | - |
| 1777701670 | 11.67° C | 76% | 1017.6 hPa | 0 mm | - | - | - |
| 1777700875 | 10° C | 81% | 1017.4 hPa | 0 mm | - | - | - |
| 1777700120 | 8.33° C | 90% | 1017.5 hPa | 0 mm | - | - | - |
| 1777699240 | 7.22° C | 92% | 1017.6 hPa | 0 mm | - | - | - |
| 1777698385 | 6.67° C | 93% | 1017.7 hPa | 0 mm | - | - | - |
| 1777697495 | 6.11° C | 94% | 1017.6 hPa | 0 mm | - | - | - |
| 1777696600 | 5.56° C | 94% | 1017.4 hPa | 0 mm | - | - | - |
| 1777695875 | 5.56° C | 94% | 1017.7 hPa | 0 mm | - | - | - |
| 1777695010 | 5.56° C | 93% | 1017.6 hPa | 0 mm | - | - | - |
| 1777694284 | 5.56° C | 93% | 1017.8 hPa | 0 mm | - | - | - |
| 1777693530 | 5.56° C | 93% | 1017.8 hPa | 0 mm | - | - | - |
| 1777692784 | 5.56° C | 93% | 1017.8 hPa | 0 mm | - | - | - |
* Rain since midnight (hover to see other rain measurements)
** Current wind speed in m/s (hover to see current wind gust speed)